sensor_id;sensor_type;location;lat;lon;timestamp;temperature;humidity
51908;DHT22;39320;53.214;6.556;2022-07-23T00:02:23;18.10;99.90
51908;DHT22;39320;53.214;6.556;2022-07-23T00:04:48;18.10;99.90
51908;DHT22;39320;53.214;6.556;2022-07-23T00:07:14;18.10;99.90
51908;DHT22;39320;53.214;6.556;2022-07-23T00:09:40;18.00;99.90
51908;DHT22;39320;53.214;6.556;2022-07-23T00:12:05;18.10;99.90
51908;DHT22;39320;53.214;6.556;2022-07-23T00:14:31;18.00;99.90
51908;DHT22;39320;53.214;6.556;2022-07-23T00:16:58;18.00;99.90
51908;DHT22;39320;53.214;6.556;2022-07-23T00:19:24;18.00;99.90
51908;DHT22;39320;53.214;6.556;2022-07-23T00:21:49;17.90;99.90
51908;DHT22;39320;53.214;6.556;2022-07-23T00:24:16;17.90;99.90
51908;DHT22;39320;53.214;6.556;2022-07-23T00:26:41;17.80;99.90
51908;DHT22;39320;53.214;6.556;2022-07-23T00:29:07;17.90;99.90
51908;DHT22;39320;53.214;6.556;2022-07-23T00:31:33;17.80;99.90
51908;DHT22;39320;53.214;6.556;2022-07-23T00:33:59;17.90;99.90
51908;DHT22;39320;53.214;6.556;2022-07-23T00:36:27;17.80;99.90
51908;DHT22;39320;53.214;6.556;2022-07-23T00:38:53;17.80;99.90
51908;DHT22;39320;53.214;6.556;2022-07-23T00:41:19;17.80;99.90
51908;DHT22;39320;53.214;6.556;2022-07-23T00:43:45;17.80;99.90
51908;DHT22;39320;53.214;6.556;2022-07-23T00:46:11;17.80;99.90
51908;DHT22;39320;53.214;6.556;2022-07-23T00:48:37;17.80;99.90
51908;DHT22;39320;53.214;6.556;2022-07-23T00:51:02;17.80;99.90
51908;DHT22;39320;53.214;6.556;2022-07-23T00:53:28;17.80;99.90
51908;DHT22;39320;53.214;6.556;2022-07-23T00:55:54;17.80;99.90
51908;DHT22;39320;53.214;6.556;2022-07-23T00:58:20;17.80;99.90
51908;DHT22;39320;53.214;6.556;2022-07-23T01:00:46;17.90;99.90
51908;DHT22;39320;53.214;6.556;2022-07-23T01:03:12;17.80;99.90
51908;DHT22;39320;53.214;6.556;2022-07-23T01:05:38;17.80;99.90
51908;DHT22;39320;53.214;6.556;2022-07-23T01:08:05;17.80;99.90
51908;DHT22;39320;53.214;6.556;2022-07-23T01:10:33;17.80;99.90
51908;DHT22;39320;53.214;6.556;2022-07-23T01:13:01;17.80;99.90
51908;DHT22;39320;53.214;6.556;2022-07-23T01:15:28;17.80;99.90
51908;DHT22;39320;53.214;6.556;2022-07-23T01:17:54;17.80;99.90
51908;DHT22;39320;53.214;6.556;2022-07-23T01:20:20;17.70;99.90
51908;DHT22;39320;53.214;6.556;2022-07-23T01:22:46;17.70;99.90
51908;DHT22;39320;53.214;6.556;2022-07-23T01:25:12;17.60;99.90
51908;DHT22;39320;53.214;6.556;2022-07-23T01:27:38;17.70;99.90
51908;DHT22;39320;53.214;6.556;2022-07-23T01:30:04;17.60;99.90
51908;DHT22;39320;53.214;6.556;2022-07-23T01:32:30;17.60;99.90
51908;DHT22;39320;53.214;6.556;2022-07-23T01:34:56;17.60;99.90
51908;DHT22;39320;53.214;6.556;2022-07-23T01:37:22;17.60;99.90
51908;DHT22;39320;53.214;6.556;2022-07-23T01:39:48;17.60;99.90
51908;DHT22;39320;53.214;6.556;2022-07-23T01:42:14;17.60;99.90
51908;DHT22;39320;53.214;6.556;2022-07-23T01:44:39;17.60;99.90
51908;DHT22;39320;53.214;6.556;2022-07-23T01:47:06;17.60;99.90
51908;DHT22;39320;53.214;6.556;2022-07-23T01:49:32;17.60;99.90
51908;DHT22;39320;53.214;6.556;2022-07-23T01:51:57;17.50;99.90
51908;DHT22;39320;53.214;6.556;2022-07-23T01:54:28;17.50;99.90
51908;DHT22;39320;53.214;6.556;2022-07-23T01:56:54;17.50;99.90
51908;DHT22;39320;53.214;6.556;2022-07-23T01:59:22;17.60;99.90
51908;DHT22;39320;53.214;6.556;2022-07-23T02:01:48;17.50;99.90
51908;DHT22;39320;53.214;6.556;2022-07-23T02:04:16;17.60;99.90
51908;DHT22;39320;53.214;6.556;2022-07-23T02:06:42;17.50;99.90
51908;DHT22;39320;53.214;6.556;2022-07-23T02:09:08;17.50;99.90
51908;DHT22;39320;53.214;6.556;2022-07-23T02:11:34;17.50;99.90
51908;DHT22;39320;53.214;6.556;2022-07-23T02:13:59;17.50;99.90
51908;DHT22;39320;53.214;6.556;2022-07-23T02:16:25;17.50;99.90
51908;DHT22;39320;53.214;6.556;2022-07-23T02:18:51;17.50;99.90
51908;DHT22;39320;53.214;6.556;2022-07-23T02:21:16;17.50;99.90
51908;DHT22;39320;53.214;6.556;2022-07-23T02:23:42;17.50;99.90
51908;DHT22;39320;53.214;6.556;2022-07-23T02:26:08;17.50;99.90
51908;DHT22;39320;53.214;6.556;2022-07-23T02:28:34;17.40;99.90
51908;DHT22;39320;53.214;6.556;2022-07-23T02:31:02;17.30;99.90
51908;DHT22;39320;53.214;6.556;2022-07-23T02:33:29;17.30;99.90
51908;DHT22;39320;53.214;6.556;2022-07-23T02:35:55;17.20;99.90
51908;DHT22;39320;53.214;6.556;2022-07-23T02:38:21;17.30;99.90
51908;DHT22;39320;53.214;6.556;2022-07-23T02:40:46;17.20;99.90
51908;DHT22;39320;53.214;6.556;2022-07-23T02:43:12;17.30;99.90
51908;DHT22;39320;53.214;6.556;2022-07-23T02:45:40;17.20;99.90
51908;DHT22;39320;53.214;6.556;2022-07-23T02:48:07;17.20;99.90
51908;DHT22;39320;53.214;6.556;2022-07-23T02:50:33;17.20;99.90
51908;DHT22;39320;53.214;6.556;2022-07-23T02:52:59;17.20;99.90
51908;DHT22;39320;53.214;6.556;2022-07-23T02:55:25;17.20;99.90
51908;DHT22;39320;53.214;6.556;2022-07-23T02:57:51;17.20;99.90
51908;DHT22;39320;53.214;6.556;2022-07-23T03:00:16;17.20;99.90
51908;DHT22;39320;53.214;6.556;2022-07-23T03:02:44;17.30;99.90
51908;DHT22;39320;53.214;6.556;2022-07-23T03:05:10;17.30;99.90
51908;DHT22;39320;53.214;6.556;2022-07-23T03:07:36;17.30;99.90
51908;DHT22;39320;53.214;6.556;2022-07-23T03:10:02;17.30;99.90
51908;DHT22;39320;53.214;6.556;2022-07-23T03:12:31;17.40;99.90
51908;DHT22;39320;53.214;6.556;2022-07-23T03:14:57;17.40;99.90
51908;DHT22;39320;53.214;6.556;2022-07-23T03:17:23;17.40;99.90
51908;DHT22;39320;53.214;6.556;2022-07-23T03:19:51;17.40;99.90
51908;DHT22;39320;53.214;6.556;2022-07-23T03:22:16;17.30;99.90
51908;DHT22;39320;53.214;6.556;2022-07-23T03:24:45;17.40;99.90
51908;DHT22;39320;53.214;6.556;2022-07-23T03:27:24;17.40;99.90
51908;DHT22;39320;53.214;6.556;2022-07-23T03:29:51;17.40;99.90
51908;DHT22;39320;53.214;6.556;2022-07-23T03:32:17;17.30;99.90
51908;DHT22;39320;53.214;6.556;2022-07-23T03:34:43;17.30;99.90
51908;DHT22;39320;53.214;6.556;2022-07-23T03:37:09;17.30;99.90
51908;DHT22;39320;53.214;6.556;2022-07-23T03:39:35;17.30;99.90
51908;DHT22;39320;53.214;6.556;2022-07-23T03:42:01;17.30;99.90
51908;DHT22;39320;53.214;6.556;2022-07-23T03:44:27;17.30;99.90
51908;DHT22;39320;53.214;6.556;2022-07-23T03:46:53;17.30;99.90
51908;DHT22;39320;53.214;6.556;2022-07-23T03:49:18;17.30;99.90
51908;DHT22;39320;53.214;6.556;2022-07-23T03:51:44;17.30;99.90
51908;DHT22;39320;53.214;6.556;2022-07-23T03:54:10;17.30;99.90
51908;DHT22;39320;53.214;6.556;2022-07-23T03:56:36;17.20;99.90
51908;DHT22;39320;53.214;6.556;2022-07-23T03:59:02;17.10;99.90
51908;DHT22;39320;53.214;6.556;2022-07-23T04:01:27;17.00;99.90
51908;DHT22;39320;53.214;6.556;2022-07-23T04:03:53;17.00;99.90
51908;DHT22;39320;53.214;6.556;2022-07-23T04:06:19;17.00;99.90
51908;DHT22;39320;53.214;6.556;2022-07-23T04:08:45;17.10;99.90
51908;DHT22;39320;53.214;6.556;2022-07-23T04:11:10;17.10;99.90
51908;DHT22;39320;53.214;6.556;2022-07-23T04:13:39;17.10;99.90
51908;DHT22;39320;53.214;6.556;2022-07-23T04:16:05;17.20;99.90
51908;DHT22;39320;53.214;6.556;2022-07-23T04:18:31;17.20;99.90
51908;DHT22;39320;53.214;6.556;2022-07-23T04:20:57;17.20;99.90
51908;DHT22;39320;53.214;6.556;2022-07-23T04:23:23;17.20;99.90
51908;DHT22;39320;53.214;6.556;2022-07-23T04:25:49;17.30;99.90
51908;DHT22;39320;53.214;6.556;2022-07-23T04:28:15;17.20;99.90
51908;DHT22;39320;53.214;6.556;2022-07-23T04:30:40;17.30;99.90
51908;DHT22;39320;53.214;6.556;2022-07-23T04:33:06;17.30;99.90
51908;DHT22;39320;53.214;6.556;2022-07-23T04:35:33;17.20;99.90
51908;DHT22;39320;53.214;6.556;2022-07-23T04:37:59;17.20;99.90
51908;DHT22;39320;53.214;6.556;2022-07-23T04:40:26;17.10;99.90
51908;DHT22;39320;53.214;6.556;2022-07-23T04:42:52;17.20;99.90
51908;DHT22;39320;53.214;6.556;2022-07-23T04:45:17;17.20;99.90
51908;DHT22;39320;53.214;6.556;2022-07-23T04:47:43;17.10;99.90
51908;DHT22;39320;53.214;6.556;2022-07-23T04:50:09;17.10;99.90
51908;DHT22;39320;53.214;6.556;2022-07-23T04:52:35;17.10;99.90
51908;DHT22;39320;53.214;6.556;2022-07-23T04:55:01;17.20;99.90
51908;DHT22;39320;53.214;6.556;2022-07-23T04:57:26;17.20;99.90
51908;DHT22;39320;53.214;6.556;2022-07-23T04:59:52;17.20;99.90
51908;DHT22;39320;53.214;6.556;2022-07-23T05:02:18;17.20;99.90
51908;DHT22;39320;53.214;6.556;2022-07-23T05:04:44;17.20;99.90
51908;DHT22;39320;53.214;6.556;2022-07-23T05:07:09;17.20;99.90
51908;DHT22;39320;53.214;6.556;2022-07-23T05:09:35;17.30;99.90
51908;DHT22;39320;53.214;6.556;2022-07-23T05:12:01;17.30;99.90
51908;DHT22;39320;53.214;6.556;2022-07-23T05:14:27;17.30;99.90
51908;DHT22;39320;53.214;6.556;2022-07-23T05:16:54;17.30;99.90
51908;DHT22;39320;53.214;6.556;2022-07-23T05:19:20;17.30;99.90
51908;DHT22;39320;53.214;6.556;2022-07-23T05:21:45;17.20;99.90
51908;DHT22;39320;53.214;6.556;2022-07-23T05:24:11;17.30;99.90
51908;DHT22;39320;53.214;6.556;2022-07-23T05:26:37;17.20;99.90
51908;DHT22;39320;53.214;6.556;2022-07-23T05:29:03;17.30;99.90
51908;DHT22;39320;53.214;6.556;2022-07-23T05:31:28;17.30;99.90
51908;DHT22;39320;53.214;6.556;2022-07-23T05:33:54;17.20;99.90
51908;DHT22;39320;53.214;6.556;2022-07-23T05:36:20;17.20;99.90
51908;DHT22;39320;53.214;6.556;2022-07-23T05:38:46;17.20;99.90
51908;DHT22;39320;53.214;6.556;2022-07-23T05:41:11;17.20;99.90
51908;DHT22;39320;53.214;6.556;2022-07-23T05:43:37;17.20;99.90
51908;DHT22;39320;53.214;6.556;2022-07-23T05:46:03;17.20;99.90
51908;DHT22;39320;53.214;6.556;2022-07-23T05:48:29;17.10;99.90
51908;DHT22;39320;53.214;6.556;2022-07-23T05:50:54;17.20;99.90
51908;DHT22;39320;53.214;6.556;2022-07-23T05:53:20;17.20;99.90
51908;DHT22;39320;53.214;6.556;2022-07-23T05:55:46;17.20;99.90
51908;DHT22;39320;53.214;6.556;2022-07-23T05:58:11;17.20;99.90
51908;DHT22;39320;53.214;6.556;2022-07-23T06:00:37;17.20;99.90
51908;DHT22;39320;53.214;6.556;2022-07-23T06:03:03;17.20;99.90
51908;DHT22;39320;53.214;6.556;2022-07-23T06:05:29;17.30;99.90
51908;DHT22;39320;53.214;6.556;2022-07-23T06:07:54;17.20;99.90
51908;DHT22;39320;53.214;6.556;2022-07-23T06:10:20;17.30;99.90
51908;DHT22;39320;53.214;6.556;2022-07-23T06:12:46;17.30;99.90
51908;DHT22;39320;53.214;6.556;2022-07-23T06:15:12;17.40;99.90
51908;DHT22;39320;53.214;6.556;2022-07-23T06:17:38;17.40;99.90
51908;DHT22;39320;53.214;6.556;2022-07-23T06:20:06;17.50;99.90
51908;DHT22;39320;53.214;6.556;2022-07-23T06:22:32;17.40;99.90
51908;DHT22;39320;53.214;6.556;2022-07-23T06:24:57;17.40;99.90
51908;DHT22;39320;53.214;6.556;2022-07-23T06:27:23;17.40;99.90
51908;DHT22;39320;53.214;6.556;2022-07-23T06:29:49;17.40;99.90
51908;DHT22;39320;53.214;6.556;2022-07-23T06:32:15;17.40;99.90
51908;DHT22;39320;53.214;6.556;2022-07-23T06:34:40;17.40;99.90
51908;DHT22;39320;53.214;6.556;2022-07-23T06:37:06;17.30;99.90
51908;DHT22;39320;53.214;6.556;2022-07-23T06:39:33;17.40;99.90
51908;DHT22;39320;53.214;6.556;2022-07-23T06:41:59;17.40;99.90
51908;DHT22;39320;53.214;6.556;2022-07-23T06:44:26;17.40;99.90
51908;DHT22;39320;53.214;6.556;2022-07-23T06:46:52;17.40;99.90
51908;DHT22;39320;53.214;6.556;2022-07-23T06:49:18;17.50;99.90
51908;DHT22;39320;53.214;6.556;2022-07-23T06:51:44;17.40;99.90
51908;DHT22;39320;53.214;6.556;2022-07-23T06:54:10;17.50;99.90
51908;DHT22;39320;53.214;6.556;2022-07-23T06:56:36;17.50;99.90
51908;DHT22;39320;53.214;6.556;2022-07-23T06:59:02;17.60;99.90
51908;DHT22;39320;53.214;6.556;2022-07-23T07:01:28;17.60;99.90
51908;DHT22;39320;53.214;6.556;2022-07-23T07:03:54;17.60;99.90
51908;DHT22;39320;53.214;6.556;2022-07-23T07:06:20;17.60;99.90
51908;DHT22;39320;53.214;6.556;2022-07-23T07:08:46;17.70;99.90
51908;DHT22;39320;53.214;6.556;2022-07-23T07:11:12;17.80;99.90
51908;DHT22;39320;53.214;6.556;2022-07-23T07:13:38;17.90;99.90
51908;DHT22;39320;53.214;6.556;2022-07-23T07:16:04;18.00;99.90
51908;DHT22;39320;53.214;6.556;2022-07-23T07:18:30;18.10;99.90
51908;DHT22;39320;53.214;6.556;2022-07-23T07:20:57;18.10;99.90
51908;DHT22;39320;53.214;6.556;2022-07-23T07:23:23;18.10;99.90
51908;DHT22;39320;53.214;6.556;2022-07-23T07:25:49;18.20;99.90
51908;DHT22;39320;53.214;6.556;2022-07-23T07:28:15;18.30;99.90
51908;DHT22;39320;53.214;6.556;2022-07-23T07:30:41;18.30;99.90
51908;DHT22;39320;53.214;6.556;2022-07-23T07:33:06;18.30;99.90
51908;DHT22;39320;53.214;6.556;2022-07-23T07:35:32;18.30;99.90
51908;DHT22;39320;53.214;6.556;2022-07-23T07:37:59;18.20;99.90
51908;DHT22;39320;53.214;6.556;2022-07-23T07:40:26;18.20;99.90
51908;DHT22;39320;53.214;6.556;2022-07-23T07:42:53;18.20;99.90
51908;DHT22;39320;53.214;6.556;2022-07-23T07:45:23;18.20;99.90
51908;DHT22;39320;53.214;6.556;2022-07-23T07:47:51;18.20;99.90
51908;DHT22;39320;53.214;6.556;2022-07-23T07:50:18;18.30;99.90
51908;DHT22;39320;53.214;6.556;2022-07-23T07:52:43;18.30;99.90
51908;DHT22;39320;53.214;6.556;2022-07-23T07:55:10;18.30;99.90
51908;DHT22;39320;53.214;6.556;2022-07-23T07:57:36;18.20;99.90
51908;DHT22;39320;53.214;6.556;2022-07-23T08:00:03;18.30;99.90
51908;DHT22;39320;53.214;6.556;2022-07-23T08:02:29;18.20;99.90
51908;DHT22;39320;53.214;6.556;2022-07-23T08:04:54;18.20;99.90
51908;DHT22;39320;53.214;6.556;2022-07-23T08:07:22;18.30;99.90
51908;DHT22;39320;53.214;6.556;2022-07-23T08:09:48;18.30;99.90
51908;DHT22;39320;53.214;6.556;2022-07-23T08:12:14;18.30;99.90
51908;DHT22;39320;53.214;6.556;2022-07-23T08:14:40;18.20;99.90
51908;DHT22;39320;53.214;6.556;2022-07-23T08:17:05;18.30;99.90
51908;DHT22;39320;53.214;6.556;2022-07-23T08:19:31;18.30;99.90
51908;DHT22;39320;53.214;6.556;2022-07-23T08:21:57;18.30;99.90
51908;DHT22;39320;53.214;6.556;2022-07-23T08:24:22;18.30;99.90
51908;DHT22;39320;53.214;6.556;2022-07-23T08:26:48;18.30;99.90
51908;DHT22;39320;53.214;6.556;2022-07-23T08:29:14;18.30;99.90
51908;DHT22;39320;53.214;6.556;2022-07-23T08:31:40;18.30;99.90
51908;DHT22;39320;53.214;6.556;2022-07-23T08:34:06;18.30;99.90
51908;DHT22;39320;53.214;6.556;2022-07-23T08:36:31;18.30;99.90
51908;DHT22;39320;53.214;6.556;2022-07-23T08:39:00;18.30;99.90
51908;DHT22;39320;53.214;6.556;2022-07-23T08:41:29;18.40;99.90
51908;DHT22;39320;53.214;6.556;2022-07-23T08:43:55;18.40;99.90
51908;DHT22;39320;53.214;6.556;2022-07-23T08:46:22;18.40;99.90
51908;DHT22;39320;53.214;6.556;2022-07-23T08:48:50;18.40;99.90
51908;DHT22;39320;53.214;6.556;2022-07-23T08:51:16;18.40;99.90
51908;DHT22;39320;53.214;6.556;2022-07-23T08:53:42;18.40;99.90
51908;DHT22;39320;53.214;6.556;2022-07-23T08:56:09;18.40;99.90
51908;DHT22;39320;53.214;6.556;2022-07-23T08:58:35;18.40;99.90
51908;DHT22;39320;53.214;6.556;2022-07-23T09:01:01;18.40;99.90
51908;DHT22;39320;53.214;6.556;2022-07-23T09:03:32;18.40;99.90
51908;DHT22;39320;53.214;6.556;2022-07-23T09:05:59;18.40;99.90
51908;DHT22;39320;53.214;6.556;2022-07-23T09:08:42;18.40;99.90
51908;DHT22;39320;53.214;6.556;2022-07-23T09:11:10;18.40;99.90
51908;DHT22;39320;53.214;6.556;2022-07-23T09:16:17;18.50;99.90
51908;DHT22;39320;53.214;6.556;2022-07-23T09:18:47;18.50;99.90
51908;DHT22;39320;53.214;6.556;2022-07-23T09:21:24;18.50;99.90
51908;DHT22;39320;53.214;6.556;2022-07-23T09:24:12;18.50;99.90
51908;DHT22;39320;53.214;6.556;2022-07-23T09:26:43;18.30;99.90
51908;DHT22;39320;53.214;6.556;2022-07-23T09:31:55;18.50;99.90
51908;DHT22;39320;53.214;6.556;2022-07-23T09:34:24;18.50;99.90
51908;DHT22;39320;53.214;6.556;2022-07-23T09:36:54;18.50;99.90
51908;DHT22;39320;53.214;6.556;2022-07-23T09:39:32;18.40;99.90
51908;DHT22;39320;53.214;6.556;2022-07-23T09:42:18;18.50;99.90
51908;DHT22;39320;53.214;6.556;2022-07-23T09:44:46;18.40;99.90
51908;DHT22;39320;53.214;6.556;2022-07-23T09:47:12;18.50;99.90
51908;DHT22;39320;53.214;6.556;2022-07-23T09:50:01;18.60;99.90
51908;DHT22;39320;53.214;6.556;2022-07-23T09:52:32;18.60;99.90
51908;DHT22;39320;53.214;6.556;2022-07-23T09:55:04;18.60;99.90
51908;DHT22;39320;53.214;6.556;2022-07-23T09:57:32;18.60;99.90
51908;DHT22;39320;53.214;6.556;2022-07-23T10:00:01;18.60;99.90
51908;DHT22;39320;53.214;6.556;2022-07-23T10:02:34;18.70;99.90
51908;DHT22;39320;53.214;6.556;2022-07-23T10:05:02;18.60;99.90
51908;DHT22;39320;53.214;6.556;2022-07-23T10:07:31;18.60;99.90
51908;DHT22;39320;53.214;6.556;2022-07-23T10:10:00;18.60;99.90
51908;DHT22;39320;53.214;6.556;2022-07-23T10:12:26;18.60;99.90
51908;DHT22;39320;53.214;6.556;2022-07-23T10:15:10;18.60;99.90
51908;DHT22;39320;53.214;6.556;2022-07-23T10:17:39;18.50;99.90
51908;DHT22;39320;53.214;6.556;2022-07-23T10:20:06;18.60;99.90
51908;DHT22;39320;53.214;6.556;2022-07-23T10:22:41;18.60;99.90
51908;DHT22;39320;53.214;6.556;2022-07-23T10:25:29;18.60;99.90
51908;DHT22;39320;53.214;6.556;2022-07-23T10:28:23;18.50;99.90
51908;DHT22;39320;53.214;6.556;2022-07-23T10:33:45;18.60;99.90
51908;DHT22;39320;53.214;6.556;2022-07-23T10:36:20;18.60;99.90
51908;DHT22;39320;53.214;6.556;2022-07-23T10:38:58;18.60;99.90
51908;DHT22;39320;53.214;6.556;2022-07-23T10:41:38;18.60;99.90
51908;DHT22;39320;53.214;6.556;2022-07-23T10:44:21;18.60;99.90
51908;DHT22;39320;53.214;6.556;2022-07-23T10:47:03;18.70;99.90
51908;DHT22;39320;53.214;6.556;2022-07-23T10:49:48;18.70;99.90
51908;DHT22;39320;53.214;6.556;2022-07-23T10:57:29;18.70;99.90
51908;DHT22;39320;53.214;6.556;2022-07-23T11:02:32;18.60;99.90
51908;DHT22;39320;53.214;6.556;2022-07-23T11:05:07;18.60;99.90
51908;DHT22;39320;53.214;6.556;2022-07-23T11:07:35;18.60;99.90
51908;DHT22;39320;53.214;6.556;2022-07-23T11:10:01;18.60;99.90
51908;DHT22;39320;53.214;6.556;2022-07-23T11:15:11;18.60;99.90
51908;DHT22;39320;53.214;6.556;2022-07-23T11:17:58;18.60;99.90
51908;DHT22;39320;53.214;6.556;2022-07-23T11:20:25;18.60;99.90
51908;DHT22;39320;53.214;6.556;2022-07-23T11:22:56;18.60;99.90
51908;DHT22;39320;53.214;6.556;2022-07-23T11:27:50;18.70;99.90
51908;DHT22;39320;53.214;6.556;2022-07-23T11:35:36;18.70;99.90
51908;DHT22;39320;53.214;6.556;2022-07-23T11:40:54;18.70;99.90
51908;DHT22;39320;53.214;6.556;2022-07-23T11:43:21;18.70;99.90
51908;DHT22;39320;53.214;6.556;2022-07-23T11:45:52;18.70;99.90
51908;DHT22;39320;53.214;6.556;2022-07-23T11:48:22;18.70;99.90
51908;DHT22;39320;53.214;6.556;2022-07-23T11:50:50;18.80;99.90
51908;DHT22;39320;53.214;6.556;2022-07-23T11:53:31;18.80;99.90
51908;DHT22;39320;53.214;6.556;2022-07-23T11:56:23;18.80;99.90
51908;DHT22;39320;53.214;6.556;2022-07-23T11:58:58;18.90;99.90
51908;DHT22;39320;53.214;6.556;2022-07-23T12:01:24;18.90;99.90
51908;DHT22;39320;53.214;6.556;2022-07-23T12:03:50;18.90;99.90
51908;DHT22;39320;53.214;6.556;2022-07-23T12:06:16;18.90;99.90
51908;DHT22;39320;53.214;6.556;2022-07-23T12:08:42;19.00;99.90
51908;DHT22;39320;53.214;6.556;2022-07-23T12:11:08;19.10;99.90
51908;DHT22;39320;53.214;6.556;2022-07-23T12:13:37;19.10;99.90
51908;DHT22;39320;53.214;6.556;2022-07-23T12:16:03;19.10;99.90
51908;DHT22;39320;53.214;6.556;2022-07-23T12:18:30;19.20;99.90
51908;DHT22;39320;53.214;6.556;2022-07-23T12:20:57;19.20;99.90
51908;DHT22;39320;53.214;6.556;2022-07-23T12:23:28;19.30;99.90
51908;DHT22;39320;53.214;6.556;2022-07-23T12:25:54;19.40;99.90
51908;DHT22;39320;53.214;6.556;2022-07-23T12:28:29;19.40;99.90
51908;DHT22;39320;53.214;6.556;2022-07-23T12:30:56;19.50;99.90
51908;DHT22;39320;53.214;6.556;2022-07-23T12:33:35;19.50;99.90
51908;DHT22;39320;53.214;6.556;2022-07-23T12:36:04;19.50;99.90
51908;DHT22;39320;53.214;6.556;2022-07-23T12:38:39;19.50;99.90
51908;DHT22;39320;53.214;6.556;2022-07-23T12:41:05;19.50;99.90
51908;DHT22;39320;53.214;6.556;2022-07-23T12:43:36;19.50;99.90
51908;DHT22;39320;53.214;6.556;2022-07-23T12:46:10;19.60;99.90
51908;DHT22;39320;53.214;6.556;2022-07-23T12:48:38;19.60;99.90
51908;DHT22;39320;53.214;6.556;2022-07-23T12:51:17;19.70;99.90
51908;DHT22;39320;53.214;6.556;2022-07-23T12:53:49;19.70;99.90
51908;DHT22;39320;53.214;6.556;2022-07-23T12:56:17;19.70;99.90
51908;DHT22;39320;53.214;6.556;2022-07-23T12:58:49;19.70;99.90
51908;DHT22;39320;53.214;6.556;2022-07-23T13:01:22;19.70;99.90
51908;DHT22;39320;53.214;6.556;2022-07-23T13:04:14;19.70;99.90
51908;DHT22;39320;53.214;6.556;2022-07-23T13:06:50;19.70;99.90
51908;DHT22;39320;53.214;6.556;2022-07-23T13:09:24;19.70;99.90
51908;DHT22;39320;53.214;6.556;2022-07-23T13:11:52;19.80;99.90
51908;DHT22;39320;53.214;6.556;2022-07-23T13:14:19;19.80;99.90
51908;DHT22;39320;53.214;6.556;2022-07-23T13:16:46;19.80;99.90
51908;DHT22;39320;53.214;6.556;2022-07-23T13:19:12;19.90;99.90
51908;DHT22;39320;53.214;6.556;2022-07-23T13:21:40;20.00;99.90
51908;DHT22;39320;53.214;6.556;2022-07-23T13:24:07;20.30;99.90
51908;DHT22;39320;53.214;6.556;2022-07-23T13:26:32;20.30;99.90
51908;DHT22;39320;53.214;6.556;2022-07-23T13:28:58;20.40;99.90
51908;DHT22;39320;53.214;6.556;2022-07-23T13:31:24;20.50;99.90
51908;DHT22;39320;53.214;6.556;2022-07-23T13:33:50;20.50;99.90
51908;DHT22;39320;53.214;6.556;2022-07-23T13:36:16;20.60;99.90
51908;DHT22;39320;53.214;6.556;2022-07-23T13:38:42;20.60;99.90
51908;DHT22;39320;53.214;6.556;2022-07-23T13:41:07;20.60;99.90
51908;DHT22;39320;53.214;6.556;2022-07-23T13:43:33;20.60;99.90
51908;DHT22;39320;53.214;6.556;2022-07-23T13:46:00;20.50;99.90
51908;DHT22;39320;53.214;6.556;2022-07-23T13:48:26;20.60;99.90
51908;DHT22;39320;53.214;6.556;2022-07-23T13:50:54;20.70;99.90
51908;DHT22;39320;53.214;6.556;2022-07-23T13:53:22;20.80;99.90
51908;DHT22;39320;53.214;6.556;2022-07-23T13:55:50;20.80;99.90
51908;DHT22;39320;53.214;6.556;2022-07-23T13:58:16;20.90;99.90
51908;DHT22;39320;53.214;6.556;2022-07-23T14:00:45;20.90;99.90
51908;DHT22;39320;53.214;6.556;2022-07-23T14:03:11;20.90;99.90
51908;DHT22;39320;53.214;6.556;2022-07-23T14:05:37;20.80;99.90
51908;DHT22;39320;53.214;6.556;2022-07-23T14:08:03;20.80;99.90
51908;DHT22;39320;53.214;6.556;2022-07-23T14:10:29;20.90;99.90
51908;DHT22;39320;53.214;6.556;2022-07-23T14:12:55;20.90;99.90
51908;DHT22;39320;53.214;6.556;2022-07-23T14:15:24;20.90;99.90
51908;DHT22;39320;53.214;6.556;2022-07-23T14:17:50;20.90;99.90
51908;DHT22;39320;53.214;6.556;2022-07-23T14:20:16;20.90;99.90
51908;DHT22;39320;53.214;6.556;2022-07-23T14:22:42;20.90;99.90
51908;DHT22;39320;53.214;6.556;2022-07-23T14:25:11;20.90;99.90
51908;DHT22;39320;53.214;6.556;2022-07-23T14:27:37;20.90;99.90
51908;DHT22;39320;53.214;6.556;2022-07-23T14:30:08;20.90;99.90
51908;DHT22;39320;53.214;6.556;2022-07-23T14:32:43;21.00;99.90
51908;DHT22;39320;53.214;6.556;2022-07-23T14:35:09;21.10;99.90
51908;DHT22;39320;53.214;6.556;2022-07-23T14:37:34;21.20;99.90
51908;DHT22;39320;53.214;6.556;2022-07-23T14:40:00;21.20;99.90
51908;DHT22;39320;53.214;6.556;2022-07-23T14:42:26;21.30;99.90
51908;DHT22;39320;53.214;6.556;2022-07-23T14:44:52;21.30;99.90
51908;DHT22;39320;53.214;6.556;2022-07-23T14:47:18;21.30;99.90
51908;DHT22;39320;53.214;6.556;2022-07-23T14:49:43;21.20;99.90
51908;DHT22;39320;53.214;6.556;2022-07-23T14:52:09;21.20;99.90
51908;DHT22;39320;53.214;6.556;2022-07-23T14:54:35;21.20;99.90
51908;DHT22;39320;53.214;6.556;2022-07-23T14:57:02;21.30;99.90
51908;DHT22;39320;53.214;6.556;2022-07-23T14:59:28;21.20;99.90
51908;DHT22;39320;53.214;6.556;2022-07-23T15:01:56;21.30;99.90
51908;DHT22;39320;53.214;6.556;2022-07-23T15:04:22;21.30;99.90
51908;DHT22;39320;53.214;6.556;2022-07-23T15:06:48;21.30;99.90
51908;DHT22;39320;53.214;6.556;2022-07-23T15:09:14;21.30;99.90
51908;DHT22;39320;53.214;6.556;2022-07-23T15:11:40;21.30;99.90
51908;DHT22;39320;53.214;6.556;2022-07-23T15:14:06;21.20;99.90
51908;DHT22;39320;53.214;6.556;2022-07-23T15:16:32;21.30;99.90
51908;DHT22;39320;53.214;6.556;2022-07-23T15:18:58;21.30;99.90
51908;DHT22;39320;53.214;6.556;2022-07-23T15:21:24;21.50;99.90
51908;DHT22;39320;53.214;6.556;2022-07-23T15:23:51;21.60;99.90
51908;DHT22;39320;53.214;6.556;2022-07-23T15:26:18;21.60;99.90
51908;DHT22;39320;53.214;6.556;2022-07-23T15:28:44;21.70;99.90
51908;DHT22;39320;53.214;6.556;2022-07-23T15:31:10;21.90;99.90
51908;DHT22;39320;53.214;6.556;2022-07-23T15:33:36;22.00;99.90
51908;DHT22;39320;53.214;6.556;2022-07-23T15:36:03;22.10;99.90
51908;DHT22;39320;53.214;6.556;2022-07-23T15:38:28;22.20;99.90
51908;DHT22;39320;53.214;6.556;2022-07-23T15:40:55;22.20;99.90
51908;DHT22;39320;53.214;6.556;2022-07-23T15:43:24;22.30;99.90
51908;DHT22;39320;53.214;6.556;2022-07-23T15:45:51;22.40;99.90
51908;DHT22;39320;53.214;6.556;2022-07-23T15:48:21;22.50;99.90
51908;DHT22;39320;53.214;6.556;2022-07-23T15:50:47;22.60;99.90
51908;DHT22;39320;53.214;6.556;2022-07-23T15:53:13;22.50;99.90
51908;DHT22;39320;53.214;6.556;2022-07-23T15:55:39;22.60;99.90
51908;DHT22;39320;53.214;6.556;2022-07-23T15:58:06;22.70;99.90
51908;DHT22;39320;53.214;6.556;2022-07-23T16:00:32;22.70;99.90
51908;DHT22;39320;53.214;6.556;2022-07-23T16:02:58;22.80;99.90